Time;durP1;ratioP1;P1;durP2;ratioP2;P2;SDS_P1;SDS_P2;PMS_P1;PMS_P2;Temp;Humidity;BMP_temperature;BMP_pressure;BME280_temperature;BME280_humidity;BME280_pressure;Samples;Min_cycle;Max_cycle;Signal;HPM_P1;HPM_P2
2023/09/16 00:00:06;;;;;;;7.77;5.60;;;15.00;99.90;;;;;;5020362;28;20183;-85
2023/09/16 00:02:32;;;;;;;6.87;5.30;;;15.00;99.90;;;;;;5026310;28;20248;-85
2023/09/16 00:04:57;;;;;;;5.87;4.77;;;15.00;99.90;;;;;;5010927;28;20421;-85
2023/09/16 00:07:23;;;;;;;7.67;5.53;;;14.90;99.90;;;;;;5006227;28;20234;-85
2023/09/16 00:09:48;;;;;;;8.47;6.00;;;14.90;99.90;;;;;;5025229;28;20198;-86
2023/09/16 00:12:14;;;;;;;9.07;5.80;;;15.00;99.90;;;;;;5003819;28;20197;-86
2023/09/16 00:14:40;;;;;;;8.97;6.07;;;14.90;99.90;;;;;;5008542;28;20713;-86
2023/09/16 00:17:05;;;;;;;7.10;6.03;;;14.90;99.90;;;;;;5012109;28;20186;-86
2023/09/16 00:19:31;;;;;;;6.37;5.67;;;15.00;99.90;;;;;;5008327;28;20182;-86
2023/09/16 00:21:57;;;;;;;5.97;5.37;;;15.10;99.90;;;;;;5029034;28;20187;-86
2023/09/16 00:24:23;;;;;;;6.90;5.60;;;15.00;99.90;;;;;;5016684;28;20174;-86
2023/09/16 00:26:49;;;;;;;7.77;5.33;;;15.00;99.90;;;;;;5011159;28;20437;-85
2023/09/16 00:29:15;;;;;;;6.20;5.47;;;14.90;99.90;;;;;;5020854;28;20228;-86
2023/09/16 00:31:40;;;;;;;8.97;6.50;;;14.90;99.90;;;;;;4995211;28;20427;-85
2023/09/16 00:34:06;;;;;;;9.27;6.30;;;15.00;99.90;;;;;;5017355;28;20190;-85
2023/09/16 00:36:31;;;;;;;6.80;5.03;;;14.90;99.90;;;;;;5033785;28;20185;-85
2023/09/16 00:38:57;;;;;;;7.20;5.10;;;14.90;99.90;;;;;;5033273;28;20638;-85
2023/09/16 00:41:22;;;;;;;8.67;5.67;;;14.90;99.90;;;;;;5016413;28;20182;-85
2023/09/16 00:43:49;;;;;;;6.73;4.90;;;14.90;99.90;;;;;;5017085;28;20265;-85
2023/09/16 00:46:15;;;;;;;6.00;5.40;;;15.00;99.90;;;;;;5032909;28;20193;-85
2023/09/16 00:48:45;;;;;;;6.83;6.17;;;15.00;99.90;;;;;;5033032;28;20447;-85
2023/09/16 00:51:11;;;;;;;6.90;6.10;;;15.10;99.90;;;;;;5017288;28;20186;-85
2023/09/16 00:53:37;;;;;;;7.10;6.07;;;15.10;99.90;;;;;;5016289;28;20467;-85
2023/09/16 00:56:03;;;;;;;6.30;5.60;;;15.20;99.90;;;;;;4980063;28;20500;-85
2023/09/16 00:58:29;;;;;;;7.40;6.20;;;15.20;99.90;;;;;;4996882;28;20218;-85
2023/09/16 01:00:55;;;;;;;6.27;5.67;;;15.10;99.90;;;;;;4981034;28;20385;-85
2023/09/16 01:03:20;;;;;;;7.37;5.80;;;15.10;99.90;;;;;;4964258;28;20489;-84
2023/09/16 01:05:47;;;;;;;7.60;6.10;;;15.10;99.90;;;;;;4980581;28;20400;-85
2023/09/16 01:08:13;;;;;;;6.33;5.33;;;15.00;99.90;;;;;;4980547;28;20210;-86
2023/09/16 01:10:41;;;;;;;5.90;5.10;;;14.90;99.90;;;;;;5012926;28;21008;-85
2023/09/16 01:13:08;;;;;;;8.53;5.93;;;15.00;99.90;;;;;;4997105;28;20174;-84
2023/09/16 01:16:03;;;;;;;7.37;5.43;;;15.00;99.90;;;;;;4996771;28;20406;-85
2023/09/16 01:18:35;;;;;;;6.50;4.90;;;14.90;99.90;;;;;;4992334;28;20517;-85
2023/09/16 01:21:03;;;;;;;10.43;5.90;;;14.90;99.90;;;;;;4996226;28;20425;-85
2023/09/16 01:23:29;;;;;;;7.33;5.50;;;14.90;99.90;;;;;;5021587;28;20444;-85
2023/09/16 01:25:55;;;;;;;6.77;5.53;;;14.90;99.90;;;;;;5033850;28;20405;-85
2023/09/16 01:28:22;;;;;;;8.20;5.30;;;14.90;99.90;;;;;;4999474;28;20210;-85
2023/09/16 01:30:50;;;;;;;8.33;5.13;;;14.90;99.90;;;;;;5016058;28;20213;-85
2023/09/16 01:33:36;;;;;;;10.17;6.07;;;14.90;99.90;;;;;;5015516;28;20943;-85
2023/09/16 01:36:14;;;;;;;5.63;4.87;;;15.00;99.90;;;;;;5016126;28;20420;-85
2023/09/16 01:38:43;;;;;;;9.20;5.27;;;15.10;99.90;;;;;;5016358;28;20441;-85
2023/09/16 01:41:10;;;;;;;5.90;5.27;;;15.10;99.90;;;;;;5015786;28;20421;-85
2023/09/16 01:43:37;;;;;;;7.57;6.17;;;15.00;99.90;;;;;;4983199;28;20520;-85
2023/09/16 01:46:03;;;;;;;14.97;6.20;;;15.00;99.90;;;;;;5016190;28;20387;-85
2023/09/16 01:48:28;;;;;;;12.40;5.93;;;15.00;99.90;;;;;;4999642;28;20430;-85
2023/09/16 01:50:54;;;;;;;7.80;7.03;;;14.90;99.90;;;;;;5033755;28;20504;-85
2023/09/16 01:53:20;;;;;;;6.20;5.60;;;14.90;99.90;;;;;;5015671;28;20596;-85
2023/09/16 01:55:45;;;;;;;8.00;6.93;;;15.00;99.90;;;;;;5015853;28;20260;-85
2023/09/16 01:58:11;;;;;;;9.43;6.37;;;15.10;99.90;;;;;;5015911;28;20665;-85
2023/09/16 02:00:37;;;;;;;6.63;6.03;;;15.10;99.90;;;;;;4983300;28;20209;-84
2023/09/16 02:03:02;;;;;;;7.40;5.47;;;15.10;99.90;;;;;;4999391;28;20249;-84
2023/09/16 02:05:29;;;;;;;7.23;5.77;;;15.10;99.90;;;;;;5032556;28;20186;-85
2023/09/16 02:07:57;;;;;;;9.30;5.70;;;15.10;99.90;;;;;;5019827;28;20783;-85
2023/09/16 02:10:22;;;;;;;8.00;5.77;;;15.10;99.90;;;;;;5036984;28;20812;-85
2023/09/16 02:12:48;;;;;;;7.30;5.30;;;15.20;99.90;;;;;;5019670;28;20423;-85
2023/09/16 02:15:13;;;;;;;6.30;5.70;;;15.20;99.90;;;;;;5019402;28;20252;-86
2023/09/16 02:17:39;;;;;;;6.73;4.80;;;15.20;99.90;;;;;;5019822;28;20217;-85
2023/09/16 02:20:12;;;;;;;6.40;5.80;;;15.20;99.90;;;;;;5003445;28;20595;-85
2023/09/16 02:22:40;;;;;;;5.60;5.10;;;15.20;99.90;;;;;;5037067;28;20534;-85
2023/09/16 02:25:06;;;;;;;8.00;5.60;;;15.20;99.90;;;;;;5019175;28;20420;-84
2023/09/16 02:27:32;;;;;;;5.40;4.90;;;15.30;99.90;;;;;;5018877;28;20509;-85
2023/09/16 02:29:58;;;;;;;11.23;5.60;;;15.30;99.90;;;;;;5037133;28;20751;-85
2023/09/16 02:32:23;;;;;;;8.60;5.60;;;15.30;99.90;;;;;;5002454;28;20439;-85
2023/09/16 02:34:49;;;;;;;7.73;5.60;;;15.20;99.90;;;;;;5019460;28;20182;-85
2023/09/16 02:37:14;;;;;;;7.97;5.67;;;15.30;99.90;;;;;;5002451;28;20252;-87
2023/09/16 02:39:40;;;;;;;7.10;5.80;;;15.20;99.90;;;;;;4986427;28;20210;-85
2023/09/16 02:42:05;;;;;;;6.40;4.87;;;15.20;99.90;;;;;;5018996;28;20178;-85
2023/09/16 02:44:31;;;;;;;7.50;5.87;;;15.30;99.90;;;;;;5002499;28;20210;-85
2023/09/16 02:46:57;;;;;;;8.43;5.90;;;15.20;99.90;;;;;;5036681;28;20225;-85
2023/09/16 02:49:22;;;;;;;6.60;5.17;;;15.20;99.90;;;;;;5002393;28;20420;-85
2023/09/16 02:51:48;;;;;;;7.50;5.43;;;15.10;99.90;;;;;;5002807;28;20182;-85
2023/09/16 02:54:14;;;;;;;11.40;5.60;;;15.20;99.90;;;;;;5036582;28;20206;-85
2023/09/16 02:56:40;;;;;;;9.50;5.53;;;15.10;99.90;;;;;;5002275;28;20423;-83
2023/09/16 02:59:05;;;;;;;7.57;6.10;;;15.10;99.90;;;;;;5018780;28;20529;-85
2023/09/16 03:01:31;;;;;;;8.23;6.27;;;15.10;99.90;;;;;;5001890;28;20237;-85
2023/09/16 03:03:57;;;;;;;11.13;5.80;;;15.10;99.90;;;;;;4986199;28;20232;-85
2023/09/16 03:06:23;;;;;;;8.00;5.63;;;15.10;99.90;;;;;;5018342;28;20587;-85
2023/09/16 03:08:49;;;;;;;9.33;6.37;;;15.10;99.90;;;;;;5018530;28;20212;-85
2023/09/16 03:11:15;;;;;;;8.20;6.40;;;15.00;99.90;;;;;;5036048;28;20462;-85
2023/09/16 03:13:42;;;;;;;7.20;6.50;;;15.10;99.90;;;;;;5018428;28;20384;-85
2023/09/16 03:16:19;;;;;;;11.07;6.57;;;15.10;99.90;;;;;;5002057;28;20554;-85
2023/09/16 03:18:46;;;;;;;9.83;6.67;;;15.00;99.90;;;;;;5035028;28;20428;-85
2023/09/16 03:21:13;;;;;;;7.90;6.50;;;15.00;99.90;;;;;;5036271;28;20405;-85
2023/09/16 03:23:39;;;;;;;10.67;7.77;;;15.10;99.90;;;;;;5018277;28;20559;-85
2023/09/16 03:26:06;;;;;;;7.53;6.83;;;15.00;99.90;;;;;;5035738;28;20506;-85
2023/09/16 03:28:31;;;;;;;8.53;6.63;;;14.90;99.90;;;;;;5018425;28;20821;-85
2023/09/16 03:30:57;;;;;;;11.90;6.53;;;14.80;99.90;;;;;;4985668;28;20429;-85
2023/09/16 03:33:22;;;;;;;10.00;7.67;;;14.70;99.90;;;;;;5017632;28;20185;-85
2023/09/16 03:35:48;;;;;;;9.57;7.77;;;14.70;99.90;;;;;;5035775;28;20643;-85
2023/09/16 03:38:16;;;;;;;10.30;8.17;;;14.60;99.90;;;;;;5001734;28;20669;-85
2023/09/16 03:40:42;;;;;;;14.03;9.87;;;14.50;99.90;;;;;;5018217;28;20170;-85
2023/09/16 03:43:07;;;;;;;10.10;9.00;;;14.60;99.90;;;;;;4997641;28;20484;-85
2023/09/16 03:45:33;;;;;;;14.93;9.50;;;14.70;99.90;;;;;;4990231;28;20194;-85
2023/09/16 03:47:58;;;;;;;14.07;8.90;;;14.70;99.90;;;;;;5004846;28;20574;-85
2023/09/16 03:50:25;;;;;;;11.50;9.57;;;14.70;99.90;;;;;;5001436;28;20600;-85
2023/09/16 03:52:51;;;;;;;12.20;8.47;;;14.70;99.90;;;;;;5035335;28;20166;-85
2023/09/16 03:55:17;;;;;;;14.20;10.10;;;14.50;99.90;;;;;;5017932;28;20399;-84
2023/09/16 03:57:42;;;;;;;11.80;8.63;;;14.50;99.90;;;;;;5001167;28;20197;-85
2023/09/16 04:00:10;;;;;;;13.87;10.07;;;14.50;99.90;;;;;;5017938;28;20190;-84
2023/09/16 04:02:38;;;;;;;19.90;10.30;;;14.40;99.90;;;;;;5001049;28;20272;-85
2023/09/16 04:05:04;;;;;;;15.70;10.17;;;14.40;99.90;;;;;;5017634;28;20409;-85
2023/09/16 04:07:30;;;;;;;12.60;10.50;;;14.40;99.90;;;;;;5035022;28;20457;-85
2023/09/16 04:09:55;;;;;;;13.00;10.63;;;14.40;99.90;;;;;;5017434;28;20417;-85
2023/09/16 04:12:21;;;;;;;14.27;11.40;;;14.40;99.90;;;;;;5034860;28;20182;-85
2023/09/16 04:14:46;;;;;;;16.00;12.20;;;14.30;99.90;;;;;;5017432;28;20186;-84
2023/09/16 04:17:12;;;;;;;16.83;12.17;;;14.30;99.90;;;;;;5017205;28;20261;-85
2023/09/16 04:19:38;;;;;;;13.83;12.27;;;14.20;99.90;;;;;;5016741;28;20186;-85
2023/09/16 04:22:04;;;;;;;15.43;11.50;;;14.20;99.90;;;;;;5000760;28;20186;-85
2023/09/16 04:24:29;;;;;;;16.03;13.13;;;14.20;99.90;;;;;;5016923;28;20193;-85
2023/09/16 04:26:55;;;;;;;24.80;14.63;;;14.20;99.90;;;;;;5017190;28;20178;-85
2023/09/16 04:29:20;;;;;;;18.03;13.83;;;14.20;99.90;;;;;;5010980;28;20197;-85
2023/09/16 04:31:46;;;;;;;17.60;14.77;;;14.20;99.90;;;;;;4997809;28;20662;-85
2023/09/16 04:34:12;;;;;;;23.27;16.77;;;14.30;99.90;;;;;;4982502;28;20275;-84
2023/09/16 04:36:39;;;;;;;24.00;15.80;;;14.20;99.90;;;;;;5034449;28;20244;-85
2023/09/16 04:39:04;;;;;;;19.13;15.50;;;14.10;99.90;;;;;;5000992;28;20189;-85
2023/09/16 04:41:31;;;;;;;22.93;14.60;;;14.00;99.90;;;;;;5000562;28;20475;-85
2023/09/16 04:43:57;;;;;;;16.13;12.60;;;13.90;99.90;;;;;;5000549;28;20202;-85
2023/09/16 04:46:23;;;;;;;16.33;12.57;;;13.90;99.90;;;;;;5016576;28;20461;-85
2023/09/16 04:48:48;;;;;;;14.97;12.27;;;13.80;99.90;;;;;;5016546;28;20515;-85
2023/09/16 04:51:14;;;;;;;14.70;11.40;;;13.80;99.90;;;;;;5000352;28;20186;-85
2023/09/16 04:53:40;;;;;;;16.07;11.80;;;13.80;99.90;;;;;;5034259;28;20253;-85
2023/09/16 04:56:05;;;;;;;16.17;11.23;;;13.80;99.90;;;;;;5016840;28;20194;-85
2023/09/16 04:58:31;;;;;;;17.90;11.77;;;13.90;99.90;;;;;;5000407;28;20194;-85
2023/09/16 05:01:01;;;;;;;16.60;11.10;;;13.90;99.90;;;;;;5016835;28;20521;-84
2023/09/16 05:03:26;;;;;;;20.00;10.97;;;13.90;99.90;;;;;;5012802;28;20546;-85
2023/09/16 05:05:53;;;;;;;11.23;10.07;;;13.90;99.90;;;;;;4996527;28;20516;-85
2023/09/16 05:08:19;;;;;;;16.30;11.40;;;14.00;99.90;;;;;;5013288;28;20659;-85
2023/09/16 05:10:50;;;;;;;12.83;11.33;;;13.90;99.90;;;;;;5013046;28;20414;-85
2023/09/16 05:13:16;;;;;;;13.13;11.10;;;14.00;99.90;;;;;;5014524;28;20559;-85
2023/09/16 05:15:45;;;;;;;13.10;11.70;;;14.10;99.90;;;;;;5013209;28;20497;-85
2023/09/16 05:18:11;;;;;;;13.70;10.70;;;14.10;99.90;;;;;;5013966;28;20175;-85
2023/09/16 05:20:36;;;;;;;12.53;10.70;;;14.20;99.90;;;;;;4996409;28;20545;-85
2023/09/16 05:23:02;;;;;;;11.07;9.87;;;14.10;99.90;;;;;;4996714;28;20547;-84
2023/09/16 05:25:27;;;;;;;11.87;9.90;;;14.10;99.90;;;;;;4996635;28;20192;-85
2023/09/16 05:27:53;;;;;;;11.20;9.97;;;14.10;99.90;;;;;;5013138;28;20214;-85
2023/09/16 05:30:18;;;;;;;10.50;9.40;;;14.10;99.90;;;;;;4996478;28;20222;-84
2023/09/16 05:32:44;;;;;;;13.07;9.27;;;14.10;99.90;;;;;;5012400;28;20197;-84
2023/09/16 05:35:10;;;;;;;9.73;8.73;;;14.10;99.90;;;;;;4980217;28;20623;-85
2023/09/16 05:37:35;;;;;;;11.60;10.20;;;14.10;99.90;;;;;;4996387;28;20187;-85
2023/09/16 05:40:01;;;;;;;11.60;9.70;;;14.20;99.90;;;;;;5012509;28;20206;-84
2023/09/16 05:42:27;;;;;;;17.93;9.83;;;14.20;99.90;;;;;;5012458;28;20519;-85
2023/09/16 05:44:52;;;;;;;12.03;10.10;;;14.30;99.90;;;;;;5013861;28;20452;-85
2023/09/16 05:47:18;;;;;;;10.50;9.27;;;14.30;99.90;;;;;;4996150;28;20558;-84
2023/09/16 05:49:44;;;;;;;10.73;9.17;;;14.30;99.90;;;;;;5013626;28;20225;-84
2023/09/16 05:52:10;;;;;;;10.50;8.90;;;14.40;99.90;;;;;;5013043;28;20202;-84
2023/09/16 05:54:35;;;;;;;13.00;9.17;;;14.40;99.90;;;;;;5012540;28;20201;-85
2023/09/16 05:57:01;;;;;;;14.50;10.80;;;14.50;99.90;;;;;;4996420;28;20406;-84
2023/09/16 05:59:27;;;;;;;11.80;8.83;;;14.60;99.90;;;;;;5012455;28;20390;-85
2023/09/16 06:01:53;;;;;;;9.87;8.67;;;14.70;99.90;;;;;;5016784;28;20466;-85
2023/09/16 06:04:19;;;;;;;12.10;8.90;;;14.70;99.90;;;;;;5032266;28;20421;-85
2023/09/16 06:06:46;;;;;;;13.67;8.93;;;14.90;99.90;;;;;;5021158;28;20661;-85
2023/09/16 06:09:11;;;;;;;11.73;9.13;;;14.90;99.90;;;;;;5012896;28;20229;-85
2023/09/16 06:11:37;;;;;;;11.17;8.63;;;15.00;99.90;;;;;;5013506;28;20406;-85
2023/09/16 06:14:03;;;;;;;12.20;8.03;;;15.10;99.90;;;;;;5012557;28;20277;-85
2023/09/16 06:16:29;;;;;;;9.43;8.43;;;15.30;99.90;;;;;;4996253;28;20286;-85
2023/09/16 06:18:54;;;;;;;11.33;8.33;;;15.40;99.90;;;;;;4980032;28;20508;-84
2023/09/16 06:21:20;;;;;;;10.17;8.53;;;15.50;99.90;;;;;;5012657;28;20187;-84
2023/09/16 06:23:46;;;;;;;9.50;8.60;;;15.50;99.90;;;;;;5012013;28;20654;-85
2023/09/16 06:26:12;;;;;;;14.10;8.10;;;15.60;99.90;;;;;;4980009;28;20182;-85
2023/09/16 06:28:38;;;;;;;10.23;8.10;;;15.70;99.90;;;;;;5012280;28;20469;-85
2023/09/16 06:31:04;;;;;;;8.60;7.70;;;15.80;99.90;;;;;;5013723;28;20210;-85
2023/09/16 06:33:29;;;;;;;10.93;8.70;;;15.80;99.90;;;;;;5012098;28;20191;-85
2023/09/16 06:35:55;;;;;;;14.93;9.30;;;15.90;99.90;;;;;;5013435;28;20469;-85
2023/09/16 06:38:21;;;;;;;8.70;7.80;;;15.90;99.90;;;;;;5012703;28;20550;-85
2023/09/16 06:40:46;;;;;;;10.73;8.10;;;16.10;99.90;;;;;;4995770;28;20225;-85
2023/09/16 06:43:12;;;;;;;11.40;7.03;;;16.10;99.90;;;;;;4996031;28;20612;-89
2023/09/16 06:45:41;;;;;;;8.13;6.90;;;16.20;99.90;;;;;;5011812;28;20194;-89
2023/09/16 06:48:08;;;;;;;12.43;7.90;;;16.30;99.90;;;;;;5012101;28;20431;-88
2023/09/16 06:50:34;;;;;;;8.40;7.53;;;16.40;99.90;;;;;;5013027;28;20445;-89
2023/09/16 06:52:59;;;;;;;9.33;7.37;;;16.50;99.90;;;;;;5013055;28;20807;-88
2023/09/16 06:55:28;;;;;;;8.97;7.17;;;16.60;99.90;;;;;;5015566;28;20237;-88
2023/09/16 06:57:54;;;;;;;8.93;7.13;;;16.70;99.90;;;;;;5031840;28;20270;-88
2023/09/16 07:00:21;;;;;;;7.67;6.93;;;16.80;99.90;;;;;;5015658;28;20400;-88
2023/09/16 07:02:47;;;;;;;8.10;6.80;;;16.80;99.90;;;;;;5027063;28;20472;-88
2023/09/16 07:05:13;;;;;;;7.03;6.33;;;16.90;99.90;;;;;;5035018;28;20443;-88
2023/09/16 07:07:38;;;;;;;6.90;5.87;;;17.00;99.90;;;;;;5034744;28;20197;-88
2023/09/16 07:10:04;;;;;;;8.23;6.10;;;17.10;99.90;;;;;;5035251;28;20182;-88
2023/09/16 07:12:30;;;;;;;7.57;6.30;;;17.30;99.90;;;;;;5035120;28;20261;-88
2023/09/16 07:14:56;;;;;;;9.97;7.47;;;17.40;99.90;;;;;;5034705;28;20496;-88
2023/09/16 07:17:21;;;;;;;7.07;6.37;;;17.50;99.90;;;;;;5035173;28;20181;-88
2023/09/16 07:19:47;;;;;;;6.77;6.07;;;17.50;99.90;;;;;;5034564;28;20200;-88
2023/09/16 07:22:13;;;;;;;6.90;6.20;;;17.60;99.90;;;;;;5035145;28;20192;-88
2023/09/16 07:24:38;;;;;;;8.50;6.03;;;17.70;99.90;;;;;;5034348;28;20189;-88
2023/09/16 07:27:04;;;;;;;7.07;6.37;;;17.80;99.90;;;;;;5034526;28;20653;-88
2023/09/16 07:29:30;;;;;;;9.00;6.10;;;18.00;99.90;;;;;;5021022;28;20245;-88
2023/09/16 07:31:55;;;;;;;7.50;5.50;;;18.00;99.90;;;;;;5014648;28;20870;-88
2023/09/16 07:34:22;;;;;;;6.20;5.60;;;18.10;99.90;;;;;;5015033;28;20178;-88
2023/09/16 07:36:48;;;;;;;5.70;5.10;;;18.20;99.90;;;;;;5006904;28;20553;-88
2023/09/16 07:39:14;;;;;;;5.83;5.33;;;18.30;99.90;;;;;;4995061;28;20428;-88
2023/09/16 07:41:43;;;;;;;7.43;5.77;;;18.50;99.90;;;;;;4994892;28;20762;-88
2023/09/16 07:44:08;;;;;;;5.57;4.93;;;18.60;99.90;;;;;;4978838;28;20189;-89
2023/09/16 07:46:34;;;;;;;4.90;4.40;;;18.70;99.90;;;;;;5008524;28;20482;-88
2023/09/16 07:49:02;;;;;;;5.50;5.00;;;18.80;99.90;;;;;;4995937;28;20213;-87
2023/09/16 07:51:28;;;;;;;6.07;5.20;;;18.90;99.90;;;;;;5011464;28;20431;-89
2023/09/16 07:53:54;;;;;;;5.40;4.87;;;18.90;99.90;;;;;;4994663;28;20404;-88
2023/09/16 07:56:20;;;;;;;10.17;4.60;;;19.00;99.90;;;;;;4994748;28;20231;-88
2023/09/16 07:58:46;;;;;;;7.97;4.40;;;19.10;99.90;;;;;;4994470;28;20627;-88
2023/09/16 08:01:14;;;;;;;5.13;4.27;;;19.20;99.90;;;;;;5005456;28;20449;-92
2023/09/16 08:03:45;;;;;;;7.60;4.60;;;19.30;99.90;;;;;;5014708;28;20223;-90
2023/09/16 08:06:11;;;;;;;6.20;4.30;;;19.40;99.90;;;;;;5014900;28;20761;-90
2023/09/16 08:08:37;;;;;;;5.20;4.70;;;19.40;99.90;;;;;;4999809;28;20496;-91
2023/09/16 08:11:03;;;;;;;4.57;3.90;;;19.50;99.90;;;;;;5014345;28;20429;-89
2023/09/16 08:13:28;;;;;;;7.67;4.17;;;19.60;99.90;;;;;;5014108;28;20551;-89
2023/09/16 08:15:55;;;;;;;4.90;4.47;;;19.70;99.90;;;;;;5014663;28;20374;-92
2023/09/16 08:18:20;;;;;;;5.60;5.10;;;19.90;99.90;;;;;;5014319;28;20273;-88
2023/09/16 08:20:46;;;;;;;6.47;4.27;;;20.00;99.90;;;;;;5013759;28;20446;-88
2023/09/16 08:23:13;;;;;;;5.07;4.67;;;20.10;99.90;;;;;;5014126;28;20182;-90
2023/09/16 08:25:39;;;;;;;5.60;4.37;;;20.10;99.90;;;;;;5013568;28;20182;-89
2023/09/16 08:28:05;;;;;;;5.80;4.50;;;20.30;99.90;;;;;;5013506;28;20440;-88
2023/09/16 08:30:30;;;;;;;4.93;4.53;;;20.40;99.90;;;;;;5027537;28;20195;-89
2023/09/16 08:32:56;;;;;;;8.30;4.40;;;20.60;99.90;;;;;;5013261;28;20187;-88
2023/09/16 08:35:25;;;;;;;5.10;4.43;;;20.70;99.90;;;;;;5013569;28;20233;-88
2023/09/16 08:37:51;;;;;;;5.20;4.40;;;20.90;99.90;;;;;;5013452;28;20183;-89
2023/09/16 08:40:17;;;;;;;4.90;4.07;;;21.30;99.90;;;;;;5013460;28;20445;-89
2023/09/16 08:42:54;;;;;;;5.30;4.43;;;21.80;99.90;;;;;;5013164;28;20591;-90
2023/09/16 08:45:22;;;;;;;4.40;4.00;;;22.00;99.90;;;;;;5013449;28;20575;-89
2023/09/16 08:47:52;;;;;;;3.80;3.50;;;22.20;99.90;;;;;;5013911;28;20945;-90
2023/09/16 08:50:21;;;;;;;5.60;4.00;;;22.20;99.90;;;;;;5013706;28;20426;-91
2023/09/16 08:52:53;;;;;;;6.23;4.20;;;22.60;99.90;;;;;;5011973;28;20432;-88
2023/09/16 08:55:19;;;;;;;9.73;4.43;;;23.20;99.90;;;;;;5012882;28;20437;-90
2023/09/16 08:57:50;;;;;;;4.50;4.03;;;23.20;99.90;;;;;;5014146;28;20897;-89
2023/09/16 09:00:16;;;;;;;5.33;4.37;;;23.10;99.90;;;;;;5014374;28;20779;-89
2023/09/16 09:02:46;;;;;;;4.77;4.37;;;23.50;99.90;;;;;;5023690;28;20469;-88
2023/09/16 09:05:12;;;;;;;9.10;3.70;;;23.50;99.90;;;;;;5033926;28;20405;-88
2023/09/16 09:07:41;;;;;;;4.23;3.80;;;23.30;99.90;;;;;;5015774;28;20453;-92
2023/09/16 09:10:10;;;;;;;4.57;4.10;;;23.50;99.90;;;;;;5015439;28;20491;-89
2023/09/16 09:12:39;;;;;;;4.13;3.50;;;23.50;99.90;;;;;;5015940;28;20503;-89
2023/09/16 09:15:10;;;;;;;5.03;3.90;;;23.80;99.90;;;;;;5033002;28;20420;-90
2023/09/16 09:17:46;;;;;;;4.40;3.97;;;24.20;99.90;;;;;;5015991;28;20432;-90
2023/09/16 09:20:17;;;;;;;4.33;3.80;;;24.50;99.90;;;;;;5033450;28;20412;-89
2023/09/16 09:22:45;;;;;;;5.57;3.90;;;24.30;99.90;;;;;;5015681;28;20424;-89
2023/09/16 09:25:11;;;;;;;4.33;3.63;;;24.40;99.90;;;;;;5015584;28;20913;-88
2023/09/16 09:27:37;;;;;;;3.93;3.63;;;24.20;99.90;;;;;;5015456;28;20464;-89
2023/09/16 09:30:05;;;;;;;4.00;3.70;;;24.50;99.90;;;;;;5013357;28;20254;-89
2023/09/16 09:32:32;;;;;;;4.07;3.50;;;25.50;99.90;;;;;;4999352;28;20285;-89
2023/09/16 09:35:04;;;;;;;3.70;3.40;;;25.80;99.90;;;;;;5015113;28;20421;-89
2023/09/16 09:37:30;;;;;;;4.70;4.13;;;25.60;99.90;;;;;;5015182;28;20421;-88
2023/09/16 09:40:25;;;;;;;3.83;3.43;;;25.30;99.90;;;;;;5032632;28;20479;-89
2023/09/16 09:42:52;;;;;;;5.07;3.70;;;25.30;99.90;;;;;;4998953;28;20186;-89
2023/09/16 09:45:22;;;;;;;4.63;4.33;;;25.50;99.90;;;;;;5015454;28;20434;-89
2023/09/16 09:47:50;;;;;;;3.87;3.47;;;25.50;99.90;;;;;;5033188;28;20948;-89
2023/09/16 09:50:18;;;;;;;3.87;3.57;;;26.00;99.90;;;;;;5015428;28;20468;-89
2023/09/16 09:52:47;;;;;;;4.30;3.90;;;26.50;99.90;;;;;;5015249;28;20523;-89
2023/09/16 09:55:17;;;;;;;4.07;3.77;;;26.40;99.90;;;;;;5015468;28;20427;-89
2023/09/16 09:57:45;;;;;;;5.30;3.93;;;26.50;99.90;;;;;;5015304;28;20428;-90
2023/09/16 10:00:15;;;;;;;4.60;4.20;;;27.10;99.90;;;;;;5015291;28;20766;-89
2023/09/16 10:02:41;;;;;;;4.20;3.83;;;27.80;99.90;;;;;;5015126;28;20476;-90
2023/09/16 10:05:07;;;;;;;4.47;3.97;;;27.50;99.90;;;;;;5015268;28;20427;-89
2023/09/16 10:07:32;;;;;;;4.50;3.80;;;28.60;99.90;;;;;;5015725;28;20468;-90
2023/09/16 10:09:58;;;;;;;4.60;3.70;;;28.50;99.90;;;;;;5015119;28;20432;-90
2023/09/16 10:12:24;;;;;;;4.43;4.10;;;28.70;99.90;;;;;;4999069;28;20182;-90
2023/09/16 10:14:53;;;;;;;6.90;4.40;;;28.70;99.90;;;;;;5015457;28;20619;-90
2023/09/16 10:17:21;;;;;;;6.17;4.50;;;28.60;99.90;;;;;;5015070;28;20435;-90
2023/09/16 10:19:47;;;;;;;4.50;3.60;;;29.00;99.90;;;;;;5032872;28;20413;-90
2023/09/16 10:22:14;;;;;;;4.40;4.10;;;29.20;99.90;;;;;;5015183;28;20767;-89
2023/09/16 10:24:45;;;;;;;7.43;3.87;;;29.20;99.90;;;;;;4998789;28;20444;-90
2023/09/16 10:27:21;;;;;;;4.33;3.93;;;29.30;99.90;;;;;;5034519;28;20791;-90
2023/09/16 10:29:51;;;;;;;4.80;4.40;;;29.50;99.90;;;;;;5018516;28;20459;-89
2023/09/16 10:32:19;;;;;;;4.17;3.77;;;29.50;99.90;;;;;;5019416;28;20901;-89
2023/09/16 10:34:46;;;;;;;4.10;3.23;;;29.70;99.90;;;;;;5018723;28;20417;-89
2023/09/16 10:37:16;;;;;;;5.83;4.27;;;30.20;99.90;;;;;;5018599;28;20428;-89
2023/09/16 10:39:45;;;;;;;4.50;4.20;;;29.60;99.90;;;;;;5018795;28;20516;-89
2023/09/16 10:42:12;;;;;;;4.27;3.90;;;29.90;99.90;;;;;;5019508;28;20465;-90
2023/09/16 10:44:39;;;;;;;6.27;4.50;;;30.40;99.90;;;;;;5002832;28;20475;-89
2023/09/16 10:47:06;;;;;;;5.37;4.40;;;30.00;99.90;;;;;;5018225;28;20428;-90
2023/09/16 10:49:32;;;;;;;5.00;4.53;;;29.90;99.90;;;;;;5018608;28;20428;-89
2023/09/16 10:52:03;;;;;;;4.23;3.83;;;29.90;99.90;;;;;;5036126;28;20409;-89
2023/09/16 10:54:59;;;;;;;4.70;4.17;;;29.90;99.90;;;;;;5019070;28;20181;-89
2023/09/16 10:57:35;;;;;;;4.60;4.20;;;30.00;99.90;;;;;;5015381;28;20421;-89
2023/09/16 11:00:09;;;;;;;4.40;4.10;;;29.70;99.90;;;;;;5035998;28;20834;-88
2023/09/16 11:02:46;;;;;;;3.77;3.47;;;30.40;99.90;;;;;;5034904;28;20483;-89
2023/09/16 11:05:11;;;;;;;3.87;3.57;;;30.40;99.90;;;;;;5018301;28;20913;-88
2023/09/16 11:07:38;;;;;;;5.00;4.50;;;30.90;99.90;;;;;;5018210;28;20595;-89
2023/09/16 11:10:04;;;;;;;4.33;4.03;;;31.30;99.90;;;;;;5017824;28;20637;-88
2023/09/16 11:12:31;;;;;;;4.43;4.03;;;30.80;99.90;;;;;;5017740;28;20413;-88
2023/09/16 11:14:57;;;;;;;4.60;4.30;;;31.20;99.90;;;;;;5001667;28;20413;-89
2023/09/16 11:17:23;;;;;;;5.40;4.70;;;31.30;99.90;;;;;;5018072;28;20436;-89
2023/09/16 11:19:49;;;;;;;5.47;4.47;;;31.50;99.90;;;;;;5001403;28;20217;-89
2023/09/16 11:22:16;;;;;;;3.90;3.60;;;31.60;99.90;;;;;;5001915;28;20228;-88
2023/09/16 11:24:42;;;;;;;4.33;3.93;;;31.70;99.90;;;;;;5017779;28;20218;-89
2023/09/16 11:27:10;;;;;;;4.27;3.90;;;31.90;99.90;;;;;;4985032;28;20797;-89
2023/09/16 11:29:36;;;;;;;6.10;4.07;;;31.90;99.90;;;;;;5001689;28;20451;-90
2023/09/16 11:32:02;;;;;;;5.47;4.47;;;32.20;99.90;;;;;;5001469;28;20428;-89
2023/09/16 11:34:29;;;;;;;4.50;4.20;;;32.30;99.90;;;;;;5001519;28;20429;-89
2023/09/16 11:37:01;;;;;;;4.97;4.47;;;32.40;99.90;;;;;;5035054;28;20178;-90
2023/09/16 11:39:43;;;;;;;4.97;4.43;;;33.00;99.90;;;;;;5016251;28;20425;-89
2023/09/16 11:42:10;;;;;;;5.63;4.13;;;32.80;99.90;;;;;;5018114;28;20508;-89
2023/09/16 11:44:36;;;;;;;4.17;3.77;;;32.80;99.90;;;;;;5001490;28;20470;-88
2023/09/16 11:47:03;;;;;;;6.20;4.40;;;32.30;99.90;;;;;;5017256;28;20421;-88
2023/09/16 11:49:34;;;;;;;5.00;4.53;;;32.60;99.90;;;;;;5000879;28;20475;-89
2023/09/16 11:52:01;;;;;;;4.17;3.87;;;32.80;99.90;;;;;;5017074;28;20417;-88
2023/09/16 11:54:27;;;;;;;6.27;4.47;;;32.50;99.90;;;;;;5017156;28;20413;-88
2023/09/16 11:56:54;;;;;;;5.40;4.90;;;32.80;99.90;;;;;;5016974;28;20420;-87
2023/09/16 11:59:20;;;;;;;4.80;4.40;;;33.20;99.90;;;;;;5000966;28;20186;-87
2023/09/16 12:01:46;;;;;;;5.20;4.50;;;33.00;99.90;;;;;;4984641;28;20425;-87
2023/09/16 12:04:15;;;;;;;4.43;4.03;;;32.30;99.90;;;;;;5016954;28;20182;-89
2023/09/16 12:06:41;;;;;;;4.90;4.20;;;32.60;99.90;;;;;;5016957;28;20421;-90
2023/09/16 12:09:10;;;;;;;4.93;4.53;;;32.40;99.90;;;;;;5034434;28;20460;-88
2023/09/16 12:11:37;;;;;;;4.50;4.13;;;32.60;99.90;;;;;;5017105;28;20425;-87
2023/09/16 12:14:04;;;;;;;3.60;3.40;;;33.20;99.90;;;;;;5016289;28;20420;-88
2023/09/16 12:16:30;;;;;;;3.90;3.50;;;33.70;99.90;;;;;;5016394;28;20427;-88
2023/09/16 12:18:56;;;;;;;3.63;3.33;;;34.10;99.90;;;;;;5000254;28;20429;-87
2023/09/16 12:21:22;;;;;;;4.10;3.80;;;34.30;99.90;;;;;;5016722;28;21038;-88
2023/09/16 12:23:49;;;;;;;3.97;3.67;;;34.40;99.90;;;;;;5034670;28;20175;-88
2023/09/16 12:26:15;;;;;;;3.40;3.10;;;34.10;99.90;;;;;;5016592;28;20833;-87
2023/09/16 12:28:41;;;;;;;4.30;4.00;;;34.10;99.90;;;;;;5000288;28;20559;-88
2023/09/16 12:31:09;;;;;;;4.07;3.77;;;33.80;99.90;;;;;;5016280;28;20415;-87
2023/09/16 12:33:44;;;;;;;4.57;4.03;;;34.20;99.90;;;;;;5016443;28;20190;-89
2023/09/16 12:36:27;;;;;;;3.70;3.20;;;34.10;99.90;;;;;;5032203;28;20590;-88
2023/09/16 12:38:54;;;;;;;4.50;3.80;;;34.50;99.90;;;;;;5005840;28;20429;-88
2023/09/16 12:41:21;;;;;;;4.07;3.77;;;34.50;99.90;;;;;;4999996;28;20424;-88